Time;durP1;ratioP1;P1;durP2;ratioP2;P2;SDS_P1;SDS_P2;PMS_P1;PMS_P2;Temp;Humidity;BMP_temperature;BMP_pressure;BME280_temperature;BME280_humidity;BME280_pressure;Samples;Min_cycle;Max_cycle;Signal;HPM_P1;HPM_P2
2022/05/10 04:32:25;;;;;;;;;12.75;8.25;;;;;20.89;44.44;101493.81;3304902;25;47027;-76
2022/05/10 04:34:51;;;;;;;;;14.00;14.00;;;;;20.86;44.31;101479.56;5054971;28;45358;-76
2022/05/10 04:37:16;;;;;;;;;15.75;13.75;;;;;20.85;44.32;101475.09;5055605;28;45669;-75
2022/05/10 04:42:43;;;;;;;;;14.75;14.25;;;;;20.96;44.02;101488.75;5009624;28;46034;-73
2022/05/10 04:45:09;;;;;;;;;14.25;13.00;;;;;20.92;43.92;101490.88;5054653;28;45235;-74
2022/05/10 04:47:34;;;;;;;;;14.25;13.75;;;;;20.99;44.09;101500.31;5054735;28;45473;-74
2022/05/10 04:50:01;;;;;;;;;14.50;11.50;;;;;20.92;43.80;101484.56;5054607;28;45612;-74
2022/05/10 04:52:27;;;;;;;;;16.00;15.00;;;;;20.95;43.80;101492.47;5054569;28;45287;-76
2022/05/10 04:54:52;;;;;;;;;11.25;11.25;;;;;20.85;44.04;101478.69;5054582;28;45445;-77
2022/05/10 04:57:17;;;;;;;;;16.50;15.50;;;;;20.95;43.87;101495.19;5036519;28;45322;-76
2022/05/10 04:59:43;;;;;;;;;15.50;14.50;;;;;20.94;44.10;101507.09;5054919;28;45316;-73
2022/05/10 05:02:08;;;;;;;;;16.25;14.25;;;;;20.88;43.97;101496.66;5054410;28;45993;-76
2022/05/10 05:04:33;;;;;;;;;16.00;12.75;;;;;20.91;44.13;101502.75;5054860;28;45355;-74
2022/05/10 05:06:59;;;;;;;;;15.00;14.50;;;;;20.82;44.21;101492.56;5057134;28;45506;-74
2022/05/10 05:09:24;;;;;;;;;12.75;12.75;;;;;20.83;44.22;101498.88;5036248;28;45557;-77
2022/05/10 05:11:49;;;;;;;;;15.75;14.75;;;;;20.80;44.62;101486.34;5054653;28;46141;-77
2022/05/10 05:14:15;;;;;;;;;15.50;15.00;;;;;20.83;44.68;101493.44;5036272;28;45340;-75
2022/05/10 05:16:40;;;;;;;;;17.25;15.50;;;;;20.91;44.69;101512.78;5054652;28;45350;-73
2022/05/10 05:19:06;;;;;;;;;14.50;14.25;;;;;20.85;44.46;101496.88;5019659;28;45561;-73
2022/05/10 05:21:33;;;;;;;;;15.00;14.75;;;;;20.85;45.27;101505.94;5033055;28;46126;-75
2022/05/10 05:23:58;;;;;;;;;16.75;15.25;;;;;20.85;44.61;101505.94;5054422;28;45509;-77
2022/05/10 05:26:24;;;;;;;;;14.50;14.50;;;;;20.91;44.85;101510.94;5054666;28;45418;-76
2022/05/10 05:28:50;;;;;;;;;15.50;14.50;;;;;20.84;44.67;101504.19;5054358;28;45513;-75
2022/05/10 05:31:17;;;;;;;;;13.75;13.25;;;;;20.92;44.63;101520.00;5054032;28;46493;-76
2022/05/10 05:33:43;;;;;;;;;19.00;17.00;;;;;20.85;44.75;101510.50;5055433;28;45549;-76
2022/05/10 05:36:08;;;;;;;;;20.50;17.75;;;;;20.83;44.65;101510.66;5054030;28;45564;-76
2022/05/10 05:38:34;;;;;;;;;16.00;15.25;;;;;20.84;44.64;101504.19;5054921;28;45410;-83
2022/05/10 05:41:01;;;;;;;;;17.50;14.50;;;;;20.83;45.13;101513.38;5035836;28;48049;-80
2022/05/10 05:43:27;;;;;;;;;17.00;13.00;;;;;20.79;45.08;101511.88;5037151;28;45979;-79
2022/05/10 05:45:53;;;;;;;;;14.25;14.25;;;;;20.63;44.58;101492.22;5036095;28;45399;-73
2022/05/10 05:48:19;;;;;;;;;18.25;16.25;;;;;20.78;44.85;101521.91;5054017;28;45280;-76
2022/05/10 05:50:45;;;;;;;;;16.50;15.50;;;;;20.78;44.87;101518.28;5055006;28;46100;-77
2022/05/10 05:53:11;;;;;;;;;12.00;12.00;;;;;20.80;44.81;101513.59;5055976;28;45474;-77
2022/05/10 05:55:37;;;;;;;;;14.00;10.75;;;;;20.77;44.75;101502.94;5054028;28;45592;-77
2022/05/10 05:58:03;;;;;;;;;15.50;15.50;;;;;20.85;44.57;101526.88;5054126;28;45532;-75
2022/05/10 06:00:28;;;;;;;;;18.00;16.50;;;;;20.81;45.11;101526.25;5054149;28;46037;-78
2022/05/10 06:02:54;;;;;;;;;19.25;17.50;;;;;20.83;44.78;101515.25;5054124;28;45469;-77
2022/05/10 06:05:22;;;;;;;;;16.00;14.75;;;;;20.90;44.80;101525.56;5053980;28;45489;-77
2022/05/10 06:07:47;;;;;;;;;15.75;14.25;;;;;20.84;45.17;101511.53;5035796;28;46395;-77
2022/05/10 06:10:13;;;;;;;;;11.25;11.25;;;;;20.86;44.82;101520.44;5049526;28;46111;-76
2022/05/10 06:12:40;;;;;;;;;16.75;15.25;;;;;20.88;45.00;101521.19;5056293;28;45493;-75
2022/05/10 06:15:12;;;;;;;;;17.00;16.00;;;;;20.88;45.12;101522.06;5038829;28;45300;-78
2022/05/10 06:17:40;;;;;;;;;12.75;12.50;;;;;20.91;44.97;101508.22;5057302;28;45285;-77
2022/05/10 06:20:08;;;;;;;;;19.00;16.25;;;;;21.00;45.12;101520.25;5056737;28;45596;-77
2022/05/10 06:22:34;;;;;;;;;15.00;15.00;;;;;21.01;45.32;101522.84;5057221;28;45355;-75
2022/05/10 06:25:00;;;;;;;;;16.00;16.00;;;;;21.03;45.15;101525.47;5038785;28;45312;-76
2022/05/10 06:27:25;;;;;;;;;15.25;15.25;;;;;21.02;45.04;101521.00;5056993;28;45397;-77
2022/05/10 06:29:51;;;;;;;;;16.25;16.25;;;;;21.00;44.94;101510.22;5056562;28;46427;-76
2022/05/10 06:32:25;;;;;;;;;18.50;14.75;;;;;21.08;45.03;101509.63;5056935;28;45330;-77
2022/05/10 06:34:50;;;;;;;;;22.25;19.00;;;;;21.07;45.21;101500.59;5057090;28;45308;-76
2022/05/10 06:40:13;;;;;;;;;18.50;16.25;;;;;21.30;44.85;101517.91;5056468;28;45382;-77
2022/05/10 06:42:39;;;;;;;;;17.25;16.25;;;;;21.26;44.82;101502.78;5056796;28;45472;-76
2022/05/10 06:45:09;;;;;;;;;18.50;17.50;;;;;21.37;45.00;101515.53;5056945;28;45365;-75
2022/05/10 06:47:37;;;;;;;;;20.00;17.50;;;;;21.35;45.06;101501.19;5038392;28;46750;-76
2022/05/10 06:50:03;;;;;;;;;14.00;14.00;;;;;21.30;45.16;101503.38;5056347;28;45492;-76
2022/05/10 06:52:29;;;;;;;;;15.25;14.25;;;;;21.07;44.85;101458.81;5056619;28;45249;-76
2022/05/10 06:54:56;;;;;;;;;17.00;14.75;;;;;21.40;45.18;101518.91;5056457;28;45853;-76
2022/05/10 06:57:21;;;;;;;;;19.75;19.00;;;;;21.41;45.10;101515.19;5056485;28;45312;-76
2022/05/10 06:59:46;;;;;;;;;16.75;16.50;;;;;21.42;45.51;101510.63;5056555;28;46664;-76
2022/05/10 07:02:12;;;;;;;;;15.00;14.50;;;;;21.43;45.10;101499.59;5056387;28;45704;-77
2022/05/10 07:04:37;;;;;;;;;16.75;14.75;;;;;21.53;45.16;101510.59;5056680;28;45213;-75
2022/05/10 07:07:03;;;;;;;;;17.00;16.25;;;;;21.64;45.02;101521.53;5056695;28;45442;-76
2022/05/10 07:09:28;;;;;;;;;17.50;17.50;;;;;21.64;44.35;101498.84;5053220;28;46213;-75
2022/05/10 07:11:54;;;;;;;;;17.25;16.50;;;;;21.68;44.14;101505.81;5056200;28;45456;-76
2022/05/10 07:14:20;;;;;;;;;16.75;15.00;;;;;21.71;44.13;101497.34;5056622;28;45516;-75
2022/05/10 07:16:45;;;;;;;;;14.25;13.25;;;;;21.77;44.22;101496.88;5055907;28;45611;-75
2022/05/10 07:19:11;;;;;;;;;17.50;15.00;;;;;21.82;43.80;101506.44;5056075;28;46085;-76
2022/05/10 07:21:36;;;;;;;;;16.00;16.00;;;;;21.83;43.09;101501.84;5056147;28;45354;-75
2022/05/10 07:24:02;;;;;;;;;19.00;17.50;;;;;21.81;43.58;101507.41;5056110;28;45525;-77
2022/05/10 07:26:28;;;;;;;;;13.75;13.75;;;;;21.87;43.45;101506.03;5037461;28;46564;-77
2022/05/10 07:28:53;;;;;;;;;14.75;13.75;;;;;21.81;43.43;101485.56;5056124;28;45398;-78
2022/05/10 07:31:18;;;;;;;;;16.75;15.75;;;;;21.81;43.36;101496.50;5055780;28;45362;-77
2022/05/10 07:33:44;;;;;;;;;14.75;14.50;;;;;21.96;43.36;101504.41;5056187;28;45229;-76
2022/05/10 07:36:24;;;;;;;;;17.50;15.25;;;;;21.98;43.31;101513.41;5055519;28;45584;-77
2022/05/10 07:38:50;;;;;;;;;16.25;15.25;;;;;22.01;42.98;101504.97;5055923;28;45465;-75
2022/05/10 07:41:21;;;;;;;;;14.00;13.25;;;;;22.03;43.32;101503.00;5055513;28;45403;-77
2022/05/10 07:43:47;;;;;;;;;21.00;16.00;;;;;22.04;43.13;101507.44;5055989;28;45395;-76
2022/05/10 07:46:13;;;;;;;;;15.00;12.75;;;;;22.02;43.17;101509.44;5055759;28;45464;-75
2022/05/10 07:48:38;;;;;;;;;11.00;11.00;;;;;22.01;43.32;101508.56;5056103;28;46050;-76
2022/05/10 07:51:04;;;;;;;;;17.75;14.50;;;;;21.92;43.30;101505.69;5055695;28;45374;-77
2022/05/10 07:53:31;;;;;;;;;14.25;14.25;;;;;21.89;43.68;101509.53;5057355;28;45392;-76
2022/05/10 07:55:58;;;;;;;;;16.00;13.25;;;;;21.88;43.75;101500.47;5056017;28;45351;-77
2022/05/10 07:58:23;;;;;;;;;16.25;13.75;;;;;21.92;43.73;101500.22;5056020;28;45653;-77
2022/05/10 08:00:50;;;;;;;;;16.00;15.00;;;;;22.04;44.01;101504.69;5055301;28;45268;-78
2022/05/10 08:03:22;;;;;;;;;18.25;18.25;;;;;22.09;43.57;101506.06;5055841;28;45272;-77
2022/05/10 08:05:49;;;;;;;;;14.50;14.25;;;;;21.88;43.54;101469.56;5037138;28;47454;-75
2022/05/10 08:08:17;;;;;;;;;17.25;16.25;;;;;22.16;43.66;101504.56;5054042;28;45978;-76
2022/05/10 08:10:44;;;;;;;;;16.25;16.00;;;;;22.21;43.69;101501.44;5053037;28;45520;-77
2022/05/10 08:13:11;;;;;;;;;15.00;15.00;;;;;22.30;43.41;101510.75;5037415;28;45411;-77
2022/05/10 08:15:37;;;;;;;;;20.25;14.75;;;;;22.28;43.65;101513.63;5054835;28;45492;-76
2022/05/10 08:18:03;;;;;;;;;16.25;15.00;;;;;22.29;43.54;101506.31;5055264;28;46027;-76
2022/05/10 08:20:28;;;;;;;;;17.00;15.75;;;;;22.30;43.72;101513.47;5054954;28;45330;-77
2022/05/10 08:22:53;;;;;;;;;14.50;13.50;;;;;22.27;43.90;101515.50;5055519;28;45752;-75
2022/05/10 08:25:19;;;;;;;;;16.75;15.25;;;;;22.33;43.93;101513.22;5054663;28;45524;-78
2022/05/10 08:27:44;;;;;;;;;16.50;15.00;;;;;22.27;43.89;101499.09;5054918;28;45326;-77
2022/05/10 08:30:10;;;;;;;;;17.25;15.50;;;;;22.45;43.94;101518.56;5054874;28;45381;-77
2022/05/10 08:32:36;;;;;;;;;16.25;15.00;;;;;22.44;43.72;101521.41;5037105;28;45383;-76
2022/05/10 08:35:01;;;;;;;;;18.00;17.00;;;;;22.47;44.04;101507.47;5053997;28;45367;-77
2022/05/10 08:37:26;;;;;;;;;14.00;12.75;;;;;22.49;43.24;101519.16;5055128;28;45980;-77
2022/05/10 08:39:52;;;;;;;;;13.50;13.00;;;;;22.53;42.72;101516.06;5054476;28;45423;-75
2022/05/10 08:42:23;;;;;;;;;10.75;10.50;;;;;22.49;43.04;101495.44;5055074;28;45819;-77
2022/05/10 08:44:54;;;;;;;;;13.00;12.50;;;;;22.59;43.13;101487.31;5054771;28;45427;-78
2022/05/10 08:47:20;;;;;;;;;16.00;14.50;;;;;22.68;42.86;101497.47;5054927;28;45445;-76
2022/05/10 08:49:53;;;;;;;;;14.25;13.50;;;;;22.80;42.62;101495.59;5055063;28;45469;-77
2022/05/10 08:52:21;;;;;;;;;14.25;14.25;;;;;22.81;42.26;101492.72;5054829;28;45330;-76
2022/05/10 08:54:47;;;;;;;;;14.75;14.75;;;;;22.94;42.48;101487.09;5054444;28;45632;-76
2022/05/10 08:57:27;;;;;;;;;15.25;14.00;;;;;22.94;41.42;101498.03;5054376;28;45895;-76
2022/05/10 09:00:08;;;;;;;;;15.00;14.00;;;;;23.03;41.52;101497.25;5036513;28;45342;-76
2022/05/10 09:02:54;;;;;;;;;13.75;12.50;;;;;23.07;41.25;101495.09;5054415;28;45296;-77
2022/05/10 09:05:28;;;;;;;;;10.50;9.00;;;;;23.13;41.30;101525.53;5054421;28;45351;-77
2022/05/10 09:08:12;;;;;;;;;14.50;13.25;;;;;23.22;40.95;101494.63;5054295;28;45457;-77
2022/05/10 09:10:51;;;;;;;;;11.00;11.00;;;;;23.30;40.66;101500.31;5052571;28;45646;-77
2022/05/10 09:13:19;;;;;;;;;13.25;12.75;;;;;23.34;40.43;101498.16;5055054;28;45416;-76
2022/05/10 09:16:03;;;;;;;;;14.25;12.25;;;;;23.51;40.03;101503.06;5054178;28;45387;-76
2022/05/10 09:18:39;;;;;;;;;14.25;13.00;;;;;23.60;40.09;101484.94;5034202;28;47649;-76
2022/05/10 09:21:38;;;;;;;;;13.25;11.50;;;;;23.80;39.78;101496.88;5054170;28;45476;-75
2022/05/10 09:24:29;;;;;;;;;11.25;10.75;;;;;23.91;39.80;101489.41;5003517;28;45629;-77
2022/05/10 09:27:04;;;;;;;;;9.75;9.50;;;;;24.04;39.32;101498.28;5054056;28;45582;-76
2022/05/10 09:29:47;;;;;;;;;14.00;13.25;;;;;24.18;39.08;101494.25;5054433;28;45650;-75
2022/05/10 09:35:14;;;;;;;;;12.25;12.00;;;;;24.32;38.93;101487.56;5054272;28;45415;-77
2022/05/10 09:37:45;;;;;;;;;12.75;12.00;;;;;24.54;39.19;101484.56;5054316;28;45552;-78
2022/05/10 09:40:17;;;;;;;;;15.00;12.50;;;;;24.67;38.43;101476.91;5054403;28;45419;-77
2022/05/10 09:42:45;;;;;;;;;11.50;10.25;;;;;24.77;38.36;101479.66;5054836;28;45231;-76
2022/05/10 09:45:16;;;;;;;;;14.25;12.50;;;;;24.78;38.17;101456.72;5054581;28;45808;-77
2022/05/10 09:47:58;;;;;;;;;12.00;11.50;;;;;24.86;37.84;101481.53;5057294;28;45329;-77
2022/05/10 09:50:36;;;;;;;;;5.75;5.75;;;;;24.92;37.75;101472.78;5039124;28;47911;-76
2022/05/10 09:53:31;;;;;;;;;13.50;13.50;;;;;24.98;36.99;101471.34;5057144;28;45426;-77
2022/05/10 09:56:02;;;;;;;;;13.50;13.50;;;;;25.10;37.87;101457.28;5038894;28;45513;-76
2022/05/10 09:58:35;;;;;;;;;11.00;10.75;;;;;25.17;36.77;101466.69;5057236;28;45509;-76
2022/05/10 10:01:04;;;;;;;;;8.00;7.00;;;;;24.97;36.63;101461.38;5056988;28;46112;-78
2022/05/10 10:03:32;;;;;;;;;12.50;11.00;;;;;25.00;36.42;101461.94;5057459;28;45225;-77
2022/05/10 10:06:16;;;;;;;;;11.00;11.00;;;;;24.87;36.04;101472.31;5057109;28;45461;-76
2022/05/10 10:08:53;;;;;;;;;14.50;12.50;;;;;24.77;36.65;101447.63;5053503;28;45552;-77
2022/05/10 10:11:21;;;;;;;;;12.75;12.75;;;;;24.91;36.89;101454.59;5056865;28;45301;-78
2022/05/10 10:14:08;;;;;;;;;17.00;13.00;;;;;25.02;36.48;101442.56;5038842;28;45407;-77
2022/05/10 10:16:50;;;;;;;;;12.00;11.50;;;;;25.02;36.06;101448.06;5057551;28;45394;-75
2022/05/10 10:19:18;;;;;;;;;12.75;11.75;;;;;25.09;36.63;101444.59;5056785;28;45588;-76
2022/05/10 10:22:13;;;;;;;;;12.25;11.00;;;;;25.22;35.70;101456.13;5056982;28;46371;-76
2022/05/10 10:24:47;;;;;;;;;13.00;11.75;;;;;25.33;35.98;101455.09;5017803;28;45627;-76
2022/05/10 10:27:28;;;;;;;;;13.25;11.50;;;;;25.33;35.73;101441.38;5038975;28;45492;-76
2022/05/10 10:29:58;;;;;;;;;10.50;10.50;;;;;25.35;35.00;101465.94;5057352;28;45346;-76
2022/05/10 10:32:32;;;;;;;;;12.50;12.50;;;;;25.38;34.90;101460.13;5056938;28;46262;-75
2022/05/10 10:35:13;;;;;;;;;11.50;10.50;;;;;25.34;35.03;101456.84;5038625;28;45560;-77
2022/05/10 10:37:46;;;;;;;;;12.75;11.75;;;;;25.37;35.52;101444.66;5056975;28;45204;-74
2022/05/10 10:40:24;;;;;;;;;13.00;11.75;;;;;25.44;34.78;101457.66;5056629;28;45337;-77
2022/05/10 10:43:21;;;;;;;;;10.75;9.00;;;;;25.42;34.62;101461.56;5056574;28;46761;-75
2022/05/10 10:45:51;;;;;;;;;11.75;10.50;;;;;25.42;34.19;101453.34;5056897;28;45441;-75
2022/05/10 10:48:25;;;;;;;;;17.00;12.75;;;;;25.43;34.93;101450.44;5056853;28;45382;-76
2022/05/10 10:50:51;;;;;;;;;11.75;10.75;;;;;25.39;34.96;101434.41;5056499;28;45528;-75
2022/05/10 10:53:20;;;;;;;;;13.00;12.00;;;;;25.53;35.07;101451.25;5056532;28;46171;-74
2022/05/10 10:55:48;;;;;;;;;11.25;11.25;;;;;25.61;34.34;101458.78;5056263;28;45407;-77
2022/05/10 10:58:26;;;;;;;;;10.00;10.00;;;;;25.51;34.36;101463.44;5037666;28;45319;-74
2022/05/10 11:01:12;;;;;;;;;12.00;10.00;;;;;25.42;34.50;101442.34;5056218;28;45462;-76
2022/05/10 11:03:55;;;;;;;;;12.00;12.00;;;;;25.51;35.13;101449.69;5056882;28;45400;-78
2022/05/10 11:06:24;;;;;;;;;12.50;10.75;;;;;25.42;34.38;101428.63;5056255;28;45308;-76
2022/05/10 11:08:58;;;;;;;;;8.75;8.75;;;;;25.59;33.91;101444.34;5052548;28;45411;-76
2022/05/10 11:11:37;;;;;;;;;11.50;10.25;;;;;25.73;34.29;101426.50;5055991;28;45251;-75
2022/05/10 11:14:22;;;;;;;;;13.00;12.00;;;;;25.81;33.62;101432.97;5056007;28;45464;-76
2022/05/10 11:17:07;;;;;;;;;13.25;11.50;;;;;25.83;34.01;101421.84;5038027;28;45519;-76
2022/05/10 11:19:51;;;;;;;;;12.00;11.00;;;;;25.86;34.34;101411.38;5056155;28;45327;-75
2022/05/10 11:22:19;;;;;;;;;8.50;8.50;;;;;26.03;33.74;101411.59;5056129;28;45290;-76
2022/05/10 11:25:06;;;;;;;;;10.50;9.50;;;;;26.17;33.67;101424.81;5035152;28;48266;-75
2022/05/10 11:27:32;;;;;;;;;12.75;11.50;;;;;26.30;32.87;101406.94;5056572;28;45359;-75
2022/05/10 11:30:08;;;;;;;;;14.25;11.75;;;;;26.31;32.90;101407.81;5037859;28;45596;-76
2022/05/10 11:32:54;;;;;;;;;9.75;7.50;;;;;26.30;32.34;101419.81;5037740;28;46093;-75
2022/05/10 11:35:41;;;;;;;;;10.75;9.75;;;;;26.33;32.74;101411.28;5055743;28;45344;-75
2022/05/10 11:38:14;;;;;;;;;11.50;9.75;;;;;26.40;32.77;101397.75;5055706;28;45309;-76
2022/05/10 11:40:57;;;;;;;;;9.00;7.25;;;;;26.59;32.79;101392.97;5055951;28;45414;-75
2022/05/10 11:43:23;;;;;;;;;12.75;12.00;;;;;26.74;32.35;101390.50;5055840;28;45253;-77
2022/05/10 11:45:58;;;;;;;;;8.25;8.25;;;;;26.84;32.01;101420.69;5055412;28;46397;-77
2022/05/10 11:49:19;;;;;;;;;10.75;9.00;;;;;26.93;32.25;101400.50;5056042;28;45263;-77
2022/05/10 11:51:50;;;;;;;;;12.25;8.25;;;;;26.97;30.92;101399.13;4973822;28;45457;-76
2022/05/10 11:54:38;;;;;;;;;10.50;9.50;;;;;27.03;30.84;101401.28;5041046;28;45422;-77
2022/05/10 11:57:08;;;;;;;;;13.50;12.25;;;;;26.87;31.22;101385.47;5037469;28;47829;-76
2022/05/10 11:59:36;;;;;;;;;10.25;8.50;;;;;26.86;30.57;101402.13;5055796;28;45451;-76
2022/05/10 12:02:04;;;;;;;;;10.25;9.00;;;;;27.02;30.95;101380.28;5055599;28;45369;-76
2022/05/10 12:04:44;;;;;;;;;7.50;7.50;;;;;27.01;31.20;101378.53;5037329;28;46102;-76
2022/05/10 12:07:18;;;;;;;;;10.00;9.50;;;;;27.10;31.33;101386.69;5055677;28;46332;-76
2022/05/10 12:09:54;;;;;;;;;8.50;8.50;;;;;27.11;31.20;101371.91;5035881;28;45539;-78
2022/05/10 12:12:32;;;;;;;;;10.00;10.00;;;;;27.21;31.28;101377.31;5055346;28;45485;-78
2022/05/10 12:21:50;;;;;;;;;8.25;8.25;;;;;27.50;29.92;101361.28;4992950;28;45457;-76
2022/05/10 12:24:25;;;;;;;;;9.25;9.25;;;;;27.44;29.31;101358.31;5055225;28;45455;-76
2022/05/10 12:26:53;;;;;;;;;8.00;6.50;;;;;27.55;30.09;101347.06;5054729;28;45609;-76
2022/05/10 12:29:39;;;;;;;;;6.50;6.50;;;;;27.75;29.78;101362.25;5055063;28;45654;-76
2022/05/10 12:32:11;;;;;;;;;11.25;10.25;;;;;27.79;29.79;101338.88;5054912;28;45296;-78
2022/05/10 12:34:49;;;;;;;;;6.25;6.25;;;;;28.04;28.64;101337.03;5055164;28;45255;-77
2022/05/10 12:37:35;;;;;;;;;9.00;9.00;;;;;27.96;29.66;101336.16;5036945;28;46346;-75
2022/05/10 12:40:10;;;;;;;;;10.00;9.00;;;;;27.96;28.80;101334.25;5054653;28;45299;-74
2022/05/10 12:43:12;;;;;;;;;9.75;8.25;;;;;28.17;28.66;101339.31;5054717;28;45331;-75
2022/05/10 12:45:53;;;;;;;;;9.00;7.25;;;;;28.43;28.60;101333.66;5037001;28;45324;-76
2022/05/10 12:48:46;;;;;;;;;7.25;7.25;;;;;28.77;28.79;101325.22;5054881;28;45358;-76
2022/05/10 12:51:27;;;;;;;;;5.25;5.25;;;;;28.91;28.97;101324.53;5054620;28;46015;-75
2022/05/10 12:54:11;;;;;;;;;10.25;8.75;;;;;29.10;28.64;101314.97;5054732;28;45335;-76
2022/05/10 12:56:58;;;;;;;;;9.75;8.00;;;;;29.39;27.18;101328.22;5054935;28;45323;-76
2022/05/10 12:59:30;;;;;;;;;9.00;9.00;;;;;29.65;26.72;101313.06;5037385;28;45667;-76
2022/05/10 13:01:58;;;;;;;;;10.00;10.00;;;;;29.73;26.95;101312.16;5054628;28;45541;-76
2022/05/10 13:04:29;;;;;;;;;8.50;7.00;;;;;29.56;26.67;101297.56;5054907;28;45233;-75
2022/05/10 13:07:19;;;;;;;;;9.50;7.75;;;;;29.43;27.47;101310.25;5055616;28;45278;-76
2022/05/10 13:09:59;;;;;;;;;3.00;2.75;;;;;29.17;27.92;101307.72;5051939;28;45494;-75
2022/05/10 13:12:34;;;;;;;;;7.25;7.25;;;;;29.37;28.07;101306.28;5036184;28;48536;-76
2022/05/10 13:15:08;;;;;;;;;6.50;5.75;;;;;29.73;27.60;101290.91;5054514;28;45334;-76
2022/05/10 13:17:35;;;;;;;;;8.00;8.00;;;;;30.08;27.37;101291.41;5054852;28;45367;-75
2022/05/10 13:20:08;;;;;;;;;7.00;7.00;;;;;30.17;26.89;101279.25;5035819;28;47297;-76
2022/05/10 13:22:34;;;;;;;;;6.00;6.00;;;;;29.81;26.91;101292.75;5054405;28;45457;-75
2022/05/10 13:25:04;;;;;;;;;10.75;8.25;;;;;29.94;26.74;101290.28;5054283;28;45447;-76
2022/05/10 13:27:35;;;;;;;;;8.00;8.00;;;;;30.27;26.44;101273.47;5055016;28;45360;-76
2022/05/10 13:30:17;;;;;;;;;7.25;7.00;;;;;30.55;25.76;101284.81;5054165;28;45253;-77
2022/05/10 13:32:49;;;;;;;;;9.00;7.25;;;;;30.53;25.44;101290.56;5054017;28;45928;-76
2022/05/10 13:35:27;;;;;;;;;11.25;11.25;;;;;30.43;26.01;101263.09;5053975;28;45358;-76
2022/05/10 13:38:13;;;;;;;;;23.75;19.50;;;;;30.70;25.36;101281.03;5054354;28;45382;-75
2022/05/10 13:40:42;;;;;;;;;15.50;14.25;;;;;31.14;25.37;101278.31;5054040;28;45370;-76
2022/05/10 13:43:32;;;;;;;;;15.75;13.00;;;;;31.35;25.05;101274.78;5053971;28;45496;-76
2022/05/10 13:46:07;;;;;;;;;26.75;23.25;;;;;31.40;24.87;101268.63;5053989;28;45316;-77
2022/05/10 13:48:37;;;;;;;;;23.25;19.25;;;;;31.76;24.55;101249.28;5054085;28;45521;-76
2022/05/10 13:51:18;;;;;;;;;12.00;11.25;;;;;32.28;23.61;101216.56;5053713;28;45438;-75
2022/05/10 13:54:05;;;;;;;;;7.25;7.25;;;;;32.78;22.36;101235.94;5054059;28;45399;-75
2022/05/10 13:56:38;;;;;;;;;8.50;8.00;;;;;32.56;23.43;101254.56;5035817;28;45882;-76
2022/05/10 13:59:04;;;;;;;;;7.00;7.00;;;;;32.56;23.48;101252.66;5054126;28;45504;-75
2022/05/10 14:01:35;;;;;;;;;8.00;8.00;;;;;32.72;23.13;101245.09;5054551;28;45395;-76
2022/05/10 14:04:06;;;;;;;;;9.50;7.25;;;;;32.81;23.44;101247.53;5053814;28;45976;-76
2022/05/10 14:06:33;;;;;;;;;7.50;6.00;;;;;33.12;22.66;101241.50;5053965;28;45229;-75
2022/05/10 14:09:06;;;;;;;;;6.50;6.00;;;;;33.54;22.43;101225.69;5050468;28;45435;-75
2022/05/10 14:11:33;;;;;;;;;8.50;8.25;;;;;34.24;21.70;101221.59;5053702;28;45169;-76
2022/05/10 14:13:59;;;;;;;;;8.25;7.25;;;;;34.59;21.53;101234.22;5053403;28;46316;-74
2022/05/10 14:16:36;;;;;;;;;3.00;3.00;;;;;34.33;21.32;101245.34;5053803;28;45425;-76
2022/05/10 14:19:13;;;;;;;;;8.25;8.00;;;;;34.04;21.51;101227.97;5053716;28;45412;-75
2022/05/10 14:21:39;;;;;;;;;7.00;7.00;;;;;34.46;21.76;101228.63;5053662;28;45308;-75
2022/05/10 14:24:05;;;;;;;;;8.50;7.00;;;;;34.77;21.32;101220.50;5053499;28;45389;-75
2022/05/10 14:26:35;;;;;;;;;8.50;6.00;;;;;34.83;20.43;101228.00;5053539;28;45506;-76
2022/05/10 14:29:17;;;;;;;;;9.00;9.00;;;;;34.81;20.53;101216.19;5053475;28;45383;-75
2022/05/10 14:31:53;;;;;;;;;9.50;8.50;;;;;34.59;20.74;101241.72;5053088;28;45549;-77
2022/05/10 14:34:46;;;;;;;;;7.75;7.75;;;;;34.60;20.73;101223.94;5056878;28;45430;-76
2022/05/10 14:37:36;;;;;;;;;7.00;7.00;;;;;34.30;21.20;101215.16;5056785;28;45517;-75
2022/05/10 14:40:32;;;;;;;;;8.75;8.75;;;;;34.19;21.40;101205.50;5056434;28;45312;-75
2022/05/10 14:43:11;;;;;;;;;8.25;8.25;;;;;34.40;21.44;101212.81;5056447;28;45477;-75
2022/05/10 14:45:46;;;;;;;;;9.25;7.00;;;;;34.09;21.08;101207.84;5056803;28;45352;-76
2022/05/10 14:48:18;;;;;;;;;8.00;8.00;;;;;33.95;21.74;101194.97;5057094;28;45201;-76
2022/05/10 14:50:46;;;;;;;;;7.75;6.25;;;;;34.00;21.89;101198.84;5057085;28;45438;-77
2022/05/10 14:53:15;;;;;;;;;6.75;6.75;;;;;33.83;21.57;101194.78;5056833;28;45305;-77
2022/05/10 14:55:43;;;;;;;;;10.75;8.25;;;;;33.96;21.90;101211.47;5056142;28;45502;-78
2022/05/10 14:58:11;;;;;;;;;6.50;6.50;;;;;34.02;21.37;101202.28;5056121;28;45419;-76
2022/05/10 15:00:39;;;;;;;;;7.00;6.00;;;;;34.29;21.48;101188.38;5056345;28;45335;-74
2022/05/10 15:03:09;;;;;;;;;5.00;4.25;;;;;34.31;21.26;101211.31;5038406;28;45927;-75
2022/05/10 15:05:39;;;;;;;;;8.50;8.50;;;;;34.12;21.47;101187.94;5056114;28;46096;-74
2022/05/10 15:08:05;;;;;;;;;8.00;8.00;;;;;34.37;21.07;101183.47;5056329;28;45460;-75
2022/05/10 15:10:30;;;;;;;;;9.00;6.50;;;;;33.97;21.59;101187.28;5052609;28;45374;-75
2022/05/10 15:13:03;;;;;;;;;7.00;7.00;;;;;33.97;21.91;101171.44;5056060;28;45402;-76
2022/05/10 15:15:30;;;;;;;;;7.25;7.25;;;;;34.21;21.90;101180.22;5039124;28;45624;-74
2022/05/10 15:20:40;;;;;;;;;8.00;7.00;;;;;33.74;22.12;101196.03;5056001;28;45316;-74
2022/05/10 15:23:05;;;;;;;;;8.00;6.75;;;;;33.09;22.31;101168.84;5038000;28;45984;-75
2022/05/10 15:25:32;;;;;;;;;7.50;6.25;;;;;32.81;23.15;101174.47;5055935;28;45586;-75
2022/05/10 15:27:59;;;;;;;;;6.25;6.25;;;;;32.50;23.06;101172.94;5037943;28;45263;-78
2022/05/10 15:30:25;;;;;;;;;10.50;8.75;;;;;32.21;23.68;101156.50;5037890;28;45358;-76
2022/05/10 15:32:50;;;;;;;;;8.25;8.25;;;;;32.18;23.95;101155.00;5037411;28;45564;-77
2022/05/10 15:35:16;;;;;;;;;10.00;8.25;;;;;32.55;23.59;101155.69;5055761;28;45398;-77
2022/05/10 15:37:43;;;;;;;;;8.50;7.75;;;;;32.67;22.91;101142.94;5055781;28;45232;-77
2022/05/10 15:40:09;;;;;;;;;9.50;8.50;;;;;32.70;22.81;101109.25;5056032;28;45277;-77
2022/05/10 15:42:34;;;;;;;;;7.00;7.00;;;;;32.87;23.06;101146.72;5055467;28;45517;-77
2022/05/10 15:45:01;;;;;;;;;7.50;6.50;;;;;32.71;22.59;101165.63;5054967;28;45548;-77
2022/05/10 15:47:30;;;;;;;;;7.00;7.00;;;;;32.37;23.41;101145.09;5055808;28;45336;-76
2022/05/10 15:49:56;;;;;;;;;8.00;8.00;;;;;32.41;23.31;101149.16;5055362;28;45439;-75
2022/05/10 15:52:23;;;;;;;;;7.00;7.00;;;;;32.43;23.50;101149.84;5040965;28;45291;-74
2022/05/10 15:54:48;;;;;;;;;5.00;4.00;;;;;32.19;23.42;101148.38;5020475;28;47123;-76
2022/05/10 15:57:16;;;;;;;;;7.75;6.00;;;;;32.11;23.53;101123.53;5055300;28;45414;-75
2022/05/10 15:59:41;;;;;;;;;11.75;9.75;;;;;32.21;23.34;101123.22;5054471;28;45970;-75
2022/05/10 16:02:08;;;;;;;;;7.00;7.00;;;;;32.52;23.12;101131.97;5055383;28;45354;-76
2022/05/10 16:04:33;;;;;;;;;7.00;6.50;;;;;32.46;23.98;101134.69;5055645;28;45610;-75
2022/05/10 16:06:58;;;;;;;;;6.00;6.00;;;;;32.44;23.28;101145.13;5055417;28;45446;-74
2022/05/10 16:09:24;;;;;;;;;7.75;7.75;;;;;32.39;23.50;101145.75;5053248;28;45400;-76
2022/05/10 16:11:49;;;;;;;;;8.00;7.50;;;;;32.55;23.57;101133.47;5055326;28;45883;-77
2022/05/10 16:14:15;;;;;;;;;8.75;7.00;;;;;32.30;23.29;101120.09;5055671;28;46025;-76
2022/05/10 16:16:42;;;;;;;;;7.00;7.00;;;;;32.13;23.97;101131.66;5037265;28;45265;-76
2022/05/10 16:19:10;;;;;;;;;6.00;6.00;;;;;32.41;23.52;101142.78;5037262;28;45259;-75
2022/05/10 16:21:37;;;;;;;;;9.00;8.00;;;;;32.39;24.01;101131.03;5037078;28;47488;-76
2022/05/10 16:24:04;;;;;;;;;8.25;8.25;;;;;32.27;23.91;101119.63;5055107;28;45503;-76